sensor_id;sensor_type;location;lat;lon;timestamp;P1;durP1;ratioP1;P2;durP2;ratioP2
10281;SDS011;5186;59.472;18.048;2023-02-22T00:00:27;3.27;;;2.33;;
10281;SDS011;5186;59.472;18.048;2023-02-22T00:03:13;3.43;;;2.30;;
10281;SDS011;5186;59.472;18.048;2023-02-22T00:05:43;4.37;;;2.43;;
10281;SDS011;5186;59.472;18.048;2023-02-22T00:08:11;3.27;;;2.53;;
10281;SDS011;5186;59.472;18.048;2023-02-22T00:10:38;3.13;;;2.50;;
10281;SDS011;5186;59.472;18.048;2023-02-22T00:13:05;3.83;;;2.63;;
10281;SDS011;5186;59.472;18.048;2023-02-22T00:15:32;3.50;;;2.50;;
10281;SDS011;5186;59.472;18.048;2023-02-22T00:17:58;2.20;;;1.97;;
10281;SDS011;5186;59.472;18.048;2023-02-22T00:20:24;2.93;;;2.20;;
10281;SDS011;5186;59.472;18.048;2023-02-22T00:22:51;3.43;;;2.10;;
10281;SDS011;5186;59.472;18.048;2023-02-22T00:25:18;3.17;;;2.17;;
10281;SDS011;5186;59.472;18.048;2023-02-22T00:27:46;3.33;;;2.40;;
10281;SDS011;5186;59.472;18.048;2023-02-22T00:30:13;3.03;;;2.30;;
10281;SDS011;5186;59.472;18.048;2023-02-22T00:32:43;2.23;;;2.03;;
10281;SDS011;5186;59.472;18.048;2023-02-22T00:35:12;2.83;;;2.13;;
10281;SDS011;5186;59.472;18.048;2023-02-22T00:37:39;3.43;;;2.50;;
10281;SDS011;5186;59.472;18.048;2023-02-22T00:40:11;3.17;;;2.47;;
10281;SDS011;5186;59.472;18.048;2023-02-22T00:42:39;2.30;;;2.00;;
10281;SDS011;5186;59.472;18.048;2023-02-22T00:45:04;3.77;;;2.30;;
10281;SDS011;5186;59.472;18.048;2023-02-22T00:47:31;3.13;;;2.17;;
10281;SDS011;5186;59.472;18.048;2023-02-22T00:49:57;2.70;;;2.00;;
10281;SDS011;5186;59.472;18.048;2023-02-22T00:52:22;3.37;;;2.43;;
10281;SDS011;5186;59.472;18.048;2023-02-22T00:54:48;3.43;;;2.30;;
10281;SDS011;5186;59.472;18.048;2023-02-22T00:57:13;3.13;;;2.37;;
10281;SDS011;5186;59.472;18.048;2023-02-22T00:59:39;3.80;;;2.37;;
10281;SDS011;5186;59.472;18.048;2023-02-22T01:02:05;3.30;;;2.30;;
10281;SDS011;5186;59.472;18.048;2023-02-22T01:04:30;2.90;;;2.40;;
10281;SDS011;5186;59.472;18.048;2023-02-22T01:06:56;3.07;;;2.13;;
10281;SDS011;5186;59.472;18.048;2023-02-22T01:09:24;3.13;;;2.33;;
10281;SDS011;5186;59.472;18.048;2023-02-22T01:11:53;3.63;;;2.50;;
10281;SDS011;5186;59.472;18.048;2023-02-22T01:14:20;3.60;;;2.70;;
10281;SDS011;5186;59.472;18.048;2023-02-22T01:16:47;2.93;;;2.20;;
10281;SDS011;5186;59.472;18.048;2023-02-22T01:19:14;3.70;;;2.67;;
10281;SDS011;5186;59.472;18.048;2023-02-22T01:21:40;3.27;;;2.40;;
10281;SDS011;5186;59.472;18.048;2023-02-22T01:24:06;3.03;;;2.33;;
10281;SDS011;5186;59.472;18.048;2023-02-22T01:26:32;3.70;;;2.70;;
10281;SDS011;5186;59.472;18.048;2023-02-22T01:28:57;4.90;;;2.70;;
10281;SDS011;5186;59.472;18.048;2023-02-22T01:31:23;3.43;;;2.70;;
10281;SDS011;5186;59.472;18.048;2023-02-22T01:33:49;3.47;;;2.57;;
10281;SDS011;5186;59.472;18.048;2023-02-22T01:36:15;4.67;;;2.50;;
10281;SDS011;5186;59.472;18.048;2023-02-22T01:38:42;3.90;;;2.90;;
10281;SDS011;5186;59.472;18.048;2023-02-22T01:41:09;4.00;;;2.80;;
10281;SDS011;5186;59.472;18.048;2023-02-22T01:43:36;4.23;;;2.53;;
10281;SDS011;5186;59.472;18.048;2023-02-22T01:46:02;3.47;;;2.40;;
10281;SDS011;5186;59.472;18.048;2023-02-22T01:48:34;3.47;;;2.53;;
10281;SDS011;5186;59.472;18.048;2023-02-22T01:53:55;3.70;;;2.37;;
10281;SDS011;5186;59.472;18.048;2023-02-22T01:56:28;4.20;;;2.80;;
10281;SDS011;5186;59.472;18.048;2023-02-22T01:59:07;3.93;;;3.13;;
10281;SDS011;5186;59.472;18.048;2023-02-22T02:01:35;4.30;;;2.77;;
10281;SDS011;5186;59.472;18.048;2023-02-22T02:04:05;3.23;;;2.40;;
10281;SDS011;5186;59.472;18.048;2023-02-22T02:06:34;3.70;;;2.77;;
10281;SDS011;5186;59.472;18.048;2023-02-22T02:11:42;3.13;;;2.50;;
10281;SDS011;5186;59.472;18.048;2023-02-22T02:14:10;4.37;;;2.90;;
10281;SDS011;5186;59.472;18.048;2023-02-22T02:22:50;3.87;;;2.70;;
10281;SDS011;5186;59.472;18.048;2023-02-22T02:33:51;4.07;;;2.90;;
10281;SDS011;5186;59.472;18.048;2023-02-22T02:36:20;3.60;;;2.53;;
10281;SDS011;5186;59.472;18.048;2023-02-22T02:39:15;4.90;;;2.90;;
10281;SDS011;5186;59.472;18.048;2023-02-22T02:41:41;4.43;;;2.80;;
10281;SDS011;5186;59.472;18.048;2023-02-22T02:50:08;4.57;;;3.00;;
10281;SDS011;5186;59.472;18.048;2023-02-22T02:52:24;4.63;;;3.30;;
10281;SDS011;5186;59.472;18.048;2023-02-22T02:54:51;4.30;;;3.00;;
10281;SDS011;5186;59.472;18.048;2023-02-22T02:57:18;4.30;;;2.90;;
10281;SDS011;5186;59.472;18.048;2023-02-22T02:59:44;4.33;;;3.03;;
10281;SDS011;5186;59.472;18.048;2023-02-22T03:05:37;3.93;;;2.70;;
10281;SDS011;5186;59.472;18.048;2023-02-22T03:08:07;4.60;;;2.87;;
10281;SDS011;5186;59.472;18.048;2023-02-22T03:10:54;3.23;;;2.37;;
10281;SDS011;5186;59.472;18.048;2023-02-22T03:13:35;4.10;;;2.80;;
10281;SDS011;5186;59.472;18.048;2023-02-22T03:25:21;3.97;;;2.67;;
10281;SDS011;5186;59.472;18.048;2023-02-22T03:29:57;3.80;;;2.60;;
10281;SDS011;5186;59.472;18.048;2023-02-22T03:32:27;4.00;;;3.07;;
10281;SDS011;5186;59.472;18.048;2023-02-22T03:35:09;4.83;;;3.20;;
10281;SDS011;5186;59.472;18.048;2023-02-22T03:37:39;4.70;;;2.77;;
10281;SDS011;5186;59.472;18.048;2023-02-22T03:40:09;4.63;;;3.00;;
10281;SDS011;5186;59.472;18.048;2023-02-22T03:42:39;5.13;;;3.17;;
10281;SDS011;5186;59.472;18.048;2023-02-22T03:45:10;3.70;;;2.63;;
10281;SDS011;5186;59.472;18.048;2023-02-22T03:47:40;3.67;;;2.80;;
10281;SDS011;5186;59.472;18.048;2023-02-22T03:50:42;4.67;;;2.87;;
10281;SDS011;5186;59.472;18.048;2023-02-22T03:53:02;3.47;;;2.53;;
10281;SDS011;5186;59.472;18.048;2023-02-22T03:55:28;3.83;;;2.93;;
10281;SDS011;5186;59.472;18.048;2023-02-22T03:57:56;3.70;;;2.87;;
10281;SDS011;5186;59.472;18.048;2023-02-22T04:00:25;4.67;;;2.80;;
10281;SDS011;5186;59.472;18.048;2023-02-22T04:02:53;3.77;;;2.90;;
10281;SDS011;5186;59.472;18.048;2023-02-22T04:05:19;4.30;;;3.10;;
10281;SDS011;5186;59.472;18.048;2023-02-22T04:07:45;4.23;;;2.87;;
10281;SDS011;5186;59.472;18.048;2023-02-22T04:10:11;4.13;;;2.70;;
10281;SDS011;5186;59.472;18.048;2023-02-22T04:12:38;3.97;;;2.90;;
10281;SDS011;5186;59.472;18.048;2023-02-22T04:15:04;5.23;;;3.10;;
10281;SDS011;5186;59.472;18.048;2023-02-22T04:17:31;3.63;;;2.80;;
10281;SDS011;5186;59.472;18.048;2023-02-22T04:19:57;3.70;;;2.97;;
10281;SDS011;5186;59.472;18.048;2023-02-22T04:22:23;4.53;;;3.17;;
10281;SDS011;5186;59.472;18.048;2023-02-22T04:24:48;4.37;;;3.20;;
10281;SDS011;5186;59.472;18.048;2023-02-22T04:27:14;4.57;;;3.30;;
10281;SDS011;5186;59.472;18.048;2023-02-22T04:29:40;5.40;;;3.10;;
10281;SDS011;5186;59.472;18.048;2023-02-22T04:32:06;4.63;;;3.37;;
10281;SDS011;5186;59.472;18.048;2023-02-22T04:34:31;4.27;;;3.30;;
10281;SDS011;5186;59.472;18.048;2023-02-22T04:36:57;5.37;;;3.50;;
10281;SDS011;5186;59.472;18.048;2023-02-22T04:39:23;5.20;;;3.20;;
10281;SDS011;5186;59.472;18.048;2023-02-22T04:41:48;6.13;;;3.07;;
10281;SDS011;5186;59.472;18.048;2023-02-22T04:44:14;4.57;;;3.30;;
10281;SDS011;5186;59.472;18.048;2023-02-22T04:46:40;5.13;;;3.90;;
10281;SDS011;5186;59.472;18.048;2023-02-22T04:49:05;5.27;;;3.43;;
10281;SDS011;5186;59.472;18.048;2023-02-22T04:51:31;4.67;;;3.07;;
10281;SDS011;5186;59.472;18.048;2023-02-22T04:53:57;5.20;;;3.40;;
10281;SDS011;5186;59.472;18.048;2023-02-22T04:56:22;5.87;;;3.80;;
10281;SDS011;5186;59.472;18.048;2023-02-22T04:58:48;4.97;;;3.37;;
10281;SDS011;5186;59.472;18.048;2023-02-22T05:01:14;6.93;;;3.77;;
10281;SDS011;5186;59.472;18.048;2023-02-22T05:03:40;5.30;;;3.23;;
10281;SDS011;5186;59.472;18.048;2023-02-22T05:06:06;4.97;;;3.60;;
10281;SDS011;5186;59.472;18.048;2023-02-22T05:08:32;5.00;;;3.60;;
10281;SDS011;5186;59.472;18.048;2023-02-22T05:10:58;5.57;;;3.43;;
10281;SDS011;5186;59.472;18.048;2023-02-22T05:13:24;4.53;;;3.33;;
10281;SDS011;5186;59.472;18.048;2023-02-22T05:15:50;4.70;;;3.23;;
10281;SDS011;5186;59.472;18.048;2023-02-22T05:18:15;4.43;;;3.20;;
10281;SDS011;5186;59.472;18.048;2023-02-22T05:20:41;4.87;;;3.53;;
10281;SDS011;5186;59.472;18.048;2023-02-22T05:23:07;6.60;;;4.10;;
10281;SDS011;5186;59.472;18.048;2023-02-22T05:25:32;7.33;;;3.70;;
10281;SDS011;5186;59.472;18.048;2023-02-22T05:27:59;5.50;;;4.00;;
10281;SDS011;5186;59.472;18.048;2023-02-22T05:30:28;6.57;;;3.87;;
10281;SDS011;5186;59.472;18.048;2023-02-22T05:32:58;5.77;;;3.37;;
10281;SDS011;5186;59.472;18.048;2023-02-22T05:35:25;4.53;;;3.30;;
10281;SDS011;5186;59.472;18.048;2023-02-22T05:37:51;5.40;;;3.67;;
10281;SDS011;5186;59.472;18.048;2023-02-22T05:40:18;6.17;;;3.80;;
10281;SDS011;5186;59.472;18.048;2023-02-22T05:42:44;5.73;;;3.77;;
10281;SDS011;5186;59.472;18.048;2023-02-22T05:45:13;5.73;;;3.70;;
10281;SDS011;5186;59.472;18.048;2023-02-22T05:47:41;5.10;;;3.80;;
10281;SDS011;5186;59.472;18.048;2023-02-22T05:50:06;5.33;;;3.43;;
10281;SDS011;5186;59.472;18.048;2023-02-22T05:52:33;4.73;;;3.40;;
10281;SDS011;5186;59.472;18.048;2023-02-22T05:54:58;5.27;;;3.43;;
10281;SDS011;5186;59.472;18.048;2023-02-22T05:57:24;6.27;;;3.57;;
10281;SDS011;5186;59.472;18.048;2023-02-22T05:59:49;5.13;;;3.80;;
10281;SDS011;5186;59.472;18.048;2023-02-22T06:02:15;5.27;;;3.37;;
10281;SDS011;5186;59.472;18.048;2023-02-22T06:04:44;5.60;;;3.67;;
10281;SDS011;5186;59.472;18.048;2023-02-22T06:07:10;5.93;;;4.00;;
10281;SDS011;5186;59.472;18.048;2023-02-22T06:09:36;4.97;;;3.67;;
10281;SDS011;5186;59.472;18.048;2023-02-22T06:12:01;6.80;;;4.13;;
10281;SDS011;5186;59.472;18.048;2023-02-22T06:14:27;4.23;;;3.40;;
10281;SDS011;5186;59.472;18.048;2023-02-22T06:16:54;6.00;;;4.07;;
10281;SDS011;5186;59.472;18.048;2023-02-22T06:19:20;6.07;;;4.00;;
10281;SDS011;5186;59.472;18.048;2023-02-22T06:21:49;5.10;;;3.77;;
10281;SDS011;5186;59.472;18.048;2023-02-22T06:24:16;5.53;;;3.93;;
10281;SDS011;5186;59.472;18.048;2023-02-22T06:26:42;7.30;;;3.97;;
10281;SDS011;5186;59.472;18.048;2023-02-22T06:29:07;4.90;;;3.77;;
10281;SDS011;5186;59.472;18.048;2023-02-22T06:31:33;6.13;;;3.63;;
10281;SDS011;5186;59.472;18.048;2023-02-22T06:34:00;5.37;;;3.70;;
10281;SDS011;5186;59.472;18.048;2023-02-22T06:36:26;6.00;;;4.00;;
10281;SDS011;5186;59.472;18.048;2023-02-22T06:38:52;5.33;;;3.90;;
10281;SDS011;5186;59.472;18.048;2023-02-22T06:41:17;6.70;;;4.07;;
10281;SDS011;5186;59.472;18.048;2023-02-22T06:43:43;6.57;;;4.30;;
10281;SDS011;5186;59.472;18.048;2023-02-22T06:46:11;5.33;;;3.87;;
10281;SDS011;5186;59.472;18.048;2023-02-22T06:48:37;10.10;;;5.87;;
10281;SDS011;5186;59.472;18.048;2023-02-22T06:51:04;7.90;;;4.97;;
10281;SDS011;5186;59.472;18.048;2023-02-22T06:53:33;16.93;;;9.40;;
10281;SDS011;5186;59.472;18.048;2023-02-22T06:55:59;16.73;;;8.43;;
10281;SDS011;5186;59.472;18.048;2023-02-22T06:58:27;12.43;;;8.00;;
10281;SDS011;5186;59.472;18.048;2023-02-22T07:00:53;13.97;;;8.73;;
10281;SDS011;5186;59.472;18.048;2023-02-22T07:03:18;16.57;;;8.93;;
10281;SDS011;5186;59.472;18.048;2023-02-22T07:05:44;12.43;;;7.60;;
10281;SDS011;5186;59.472;18.048;2023-02-22T07:08:10;12.77;;;6.50;;
10281;SDS011;5186;59.472;18.048;2023-02-22T07:10:37;10.83;;;6.80;;
10281;SDS011;5186;59.472;18.048;2023-02-22T07:13:04;10.60;;;6.27;;
10281;SDS011;5186;59.472;18.048;2023-02-22T07:15:31;9.93;;;6.60;;
10281;SDS011;5186;59.472;18.048;2023-02-22T07:17:58;10.30;;;5.73;;
10281;SDS011;5186;59.472;18.048;2023-02-22T07:20:25;9.10;;;6.10;;
10281;SDS011;5186;59.472;18.048;2023-02-22T07:22:52;9.70;;;6.20;;
10281;SDS011;5186;59.472;18.048;2023-02-22T07:25:18;8.67;;;5.63;;
10281;SDS011;5186;59.472;18.048;2023-02-22T07:27:44;6.57;;;4.90;;
10281;SDS011;5186;59.472;18.048;2023-02-22T07:30:14;7.20;;;4.80;;
10281;SDS011;5186;59.472;18.048;2023-02-22T07:32:42;7.87;;;5.10;;
10281;SDS011;5186;59.472;18.048;2023-02-22T07:35:19;7.17;;;5.67;;
10281;SDS011;5186;59.472;18.048;2023-02-22T07:37:49;7.07;;;5.10;;
10281;SDS011;5186;59.472;18.048;2023-02-22T07:40:15;8.77;;;5.13;;
10281;SDS011;5186;59.472;18.048;2023-02-22T07:42:55;7.03;;;5.07;;
10281;SDS011;5186;59.472;18.048;2023-02-22T07:45:24;7.53;;;4.93;;
10281;SDS011;5186;59.472;18.048;2023-02-22T07:47:52;6.60;;;4.77;;
10281;SDS011;5186;59.472;18.048;2023-02-22T07:50:18;7.37;;;5.23;;
10281;SDS011;5186;59.472;18.048;2023-02-22T07:52:45;8.50;;;5.60;;
10281;SDS011;5186;59.472;18.048;2023-02-22T07:55:16;9.90;;;5.80;;
10281;SDS011;5186;59.472;18.048;2023-02-22T07:57:46;10.47;;;6.27;;
10281;SDS011;5186;59.472;18.048;2023-02-22T08:00:14;9.80;;;6.17;;
10281;SDS011;5186;59.472;18.048;2023-02-22T08:02:45;9.77;;;6.23;;
10281;SDS011;5186;59.472;18.048;2023-02-22T08:05:10;11.00;;;6.43;;
10281;SDS011;5186;59.472;18.048;2023-02-22T08:07:38;9.70;;;6.27;;
10281;SDS011;5186;59.472;18.048;2023-02-22T08:10:05;9.33;;;6.30;;
10281;SDS011;5186;59.472;18.048;2023-02-22T08:12:35;12.53;;;6.97;;
10281;SDS011;5186;59.472;18.048;2023-02-22T08:15:05;8.50;;;6.17;;
10281;SDS011;5186;59.472;18.048;2023-02-22T08:17:31;11.03;;;6.73;;
10281;SDS011;5186;59.472;18.048;2023-02-22T08:19:57;9.27;;;6.17;;
10281;SDS011;5186;59.472;18.048;2023-02-22T08:22:23;10.30;;;5.97;;
10281;SDS011;5186;59.472;18.048;2023-02-22T08:24:48;9.87;;;5.57;;
10281;SDS011;5186;59.472;18.048;2023-02-22T08:27:21;10.47;;;6.00;;
10281;SDS011;5186;59.472;18.048;2023-02-22T08:29:49;8.87;;;5.80;;
10281;SDS011;5186;59.472;18.048;2023-02-22T08:32:15;7.60;;;5.30;;
10281;SDS011;5186;59.472;18.048;2023-02-22T08:34:41;8.33;;;5.10;;
10281;SDS011;5186;59.472;18.048;2023-02-22T08:37:07;7.70;;;5.03;;
10281;SDS011;5186;59.472;18.048;2023-02-22T08:39:32;7.03;;;4.90;;
10281;SDS011;5186;59.472;18.048;2023-02-22T08:41:58;10.43;;;5.03;;
10281;SDS011;5186;59.472;18.048;2023-02-22T08:44:23;8.00;;;5.00;;
10281;SDS011;5186;59.472;18.048;2023-02-22T08:46:49;9.20;;;5.30;;
10281;SDS011;5186;59.472;18.048;2023-02-22T08:49:15;7.60;;;4.90;;
10281;SDS011;5186;59.472;18.048;2023-02-22T08:51:41;7.00;;;4.67;;
10281;SDS011;5186;59.472;18.048;2023-02-22T08:54:07;7.73;;;4.57;;
10281;SDS011;5186;59.472;18.048;2023-02-22T08:56:32;7.53;;;4.23;;
10281;SDS011;5186;59.472;18.048;2023-02-22T08:58:58;7.53;;;4.33;;
10281;SDS011;5186;59.472;18.048;2023-02-22T09:01:24;10.27;;;5.03;;
10281;SDS011;5186;59.472;18.048;2023-02-22T09:03:50;5.80;;;4.30;;
10281;SDS011;5186;59.472;18.048;2023-02-22T09:06:16;12.33;;;5.10;;
10281;SDS011;5186;59.472;18.048;2023-02-22T09:08:42;8.30;;;4.30;;
10281;SDS011;5186;59.472;18.048;2023-02-22T09:11:07;9.70;;;4.20;;
10281;SDS011;5186;59.472;18.048;2023-02-22T09:13:33;4.37;;;3.40;;
10281;SDS011;5186;59.472;18.048;2023-02-22T09:15:59;10.10;;;4.10;;
10281;SDS011;5186;59.472;18.048;2023-02-22T09:18:25;5.63;;;4.03;;
10281;SDS011;5186;59.472;18.048;2023-02-22T09:20:52;6.63;;;4.27;;
10281;SDS011;5186;59.472;18.048;2023-02-22T09:23:18;7.33;;;4.37;;
10281;SDS011;5186;59.472;18.048;2023-02-22T09:25:45;6.13;;;3.90;;
10281;SDS011;5186;59.472;18.048;2023-02-22T09:28:12;5.30;;;3.47;;
10281;SDS011;5186;59.472;18.048;2023-02-22T09:30:38;7.07;;;4.10;;
10281;SDS011;5186;59.472;18.048;2023-02-22T09:33:08;6.83;;;4.27;;
10281;SDS011;5186;59.472;18.048;2023-02-22T09:35:41;8.07;;;4.13;;
10281;SDS011;5186;59.472;18.048;2023-02-22T09:38:10;5.23;;;3.80;;
10281;SDS011;5186;59.472;18.048;2023-02-22T09:40:42;7.07;;;4.40;;
10281;SDS011;5186;59.472;18.048;2023-02-22T09:48:54;6.63;;;4.10;;
10281;SDS011;5186;59.472;18.048;2023-02-22T09:51:41;7.20;;;3.90;;
10281;SDS011;5186;59.472;18.048;2023-02-22T09:54:12;6.77;;;3.77;;
10281;SDS011;5186;59.472;18.048;2023-02-22T09:56:51;7.57;;;4.10;;
10281;SDS011;5186;59.472;18.048;2023-02-22T09:59:24;6.63;;;4.00;;
10281;SDS011;5186;59.472;18.048;2023-02-22T10:02:17;6.70;;;3.60;;
10281;SDS011;5186;59.472;18.048;2023-02-22T10:07:34;7.93;;;4.20;;
10281;SDS011;5186;59.472;18.048;2023-02-22T10:10:05;8.13;;;3.97;;
10281;SDS011;5186;59.472;18.048;2023-02-22T10:27:07;4.67;;;3.20;;
10281;SDS011;5186;59.472;18.048;2023-02-22T10:29:48;6.90;;;3.60;;
10281;SDS011;5186;59.472;18.048;2023-02-22T10:32:24;6.47;;;3.97;;
10281;SDS011;5186;59.472;18.048;2023-02-22T10:34:55;5.00;;;3.50;;
10281;SDS011;5186;59.472;18.048;2023-02-22T10:39:55;6.10;;;4.17;;
10281;SDS011;5186;59.472;18.048;2023-02-22T10:42:36;5.73;;;3.90;;
10281;SDS011;5186;59.472;18.048;2023-02-22T10:45:02;5.20;;;3.40;;
10281;SDS011;5186;59.472;18.048;2023-02-22T10:47:28;4.93;;;3.60;;
10281;SDS011;5186;59.472;18.048;2023-02-22T10:49:55;5.00;;;3.60;;
10281;SDS011;5186;59.472;18.048;2023-02-22T10:52:28;5.40;;;3.60;;
10281;SDS011;5186;59.472;18.048;2023-02-22T10:54:56;5.70;;;3.40;;
10281;SDS011;5186;59.472;18.048;2023-02-22T10:57:28;5.40;;;3.50;;
10281;SDS011;5186;59.472;18.048;2023-02-22T10:59:56;5.00;;;3.27;;
10281;SDS011;5186;59.472;18.048;2023-02-22T11:02:37;5.77;;;3.27;;
10281;SDS011;5186;59.472;18.048;2023-02-22T11:05:24;4.30;;;3.13;;
10281;SDS011;5186;59.472;18.048;2023-02-22T11:08:21;5.33;;;3.50;;
10281;SDS011;5186;59.472;18.048;2023-02-22T11:11:34;9.13;;;4.23;;
10281;SDS011;5186;59.472;18.048;2023-02-22T11:13:49;5.33;;;3.33;;
10281;SDS011;5186;59.472;18.048;2023-02-22T11:16:38;4.63;;;3.30;;
10281;SDS011;5186;59.472;18.048;2023-02-22T11:21:44;5.70;;;3.23;;
10281;SDS011;5186;59.472;18.048;2023-02-22T11:24:12;7.97;;;3.50;;
10281;SDS011;5186;59.472;18.048;2023-02-22T11:26:46;5.03;;;3.17;;
10281;SDS011;5186;59.472;18.048;2023-02-22T11:31:50;4.57;;;3.00;;
10281;SDS011;5186;59.472;18.048;2023-02-22T11:34:28;6.00;;;3.40;;
10281;SDS011;5186;59.472;18.048;2023-02-22T11:37:26;5.17;;;3.13;;
10281;SDS011;5186;59.472;18.048;2023-02-22T11:42:47;4.73;;;3.23;;
10281;SDS011;5186;59.472;18.048;2023-02-22T11:45:21;4.57;;;3.10;;
10281;SDS011;5186;59.472;18.048;2023-02-22T11:48:00;4.37;;;3.00;;
10281;SDS011;5186;59.472;18.048;2023-02-22T11:50:32;4.70;;;3.30;;
10281;SDS011;5186;59.472;18.048;2023-02-22T11:53:11;4.10;;;2.83;;
10281;SDS011;5186;59.472;18.048;2023-02-22T12:04:10;5.47;;;3.00;;
10281;SDS011;5186;59.472;18.048;2023-02-22T12:10:23;4.40;;;2.90;;
10281;SDS011;5186;59.472;18.048;2023-02-22T12:12:54;5.47;;;3.30;;
10281;SDS011;5186;59.472;18.048;2023-02-22T12:15:38;4.13;;;2.90;;
10281;SDS011;5186;59.472;18.048;2023-02-22T12:20:59;4.53;;;3.10;;
10281;SDS011;5186;59.472;18.048;2023-02-22T12:23:32;4.83;;;3.53;;
10281;SDS011;5186;59.472;18.048;2023-02-22T12:26:15;6.53;;;3.50;;
10281;SDS011;5186;59.472;18.048;2023-02-22T12:31:45;4.83;;;3.13;;
10281;SDS011;5186;59.472;18.048;2023-02-22T12:34:37;3.53;;;2.87;;
10281;SDS011;5186;59.472;18.048;2023-02-22T12:42:58;5.53;;;3.70;;
10281;SDS011;5186;59.472;18.048;2023-02-22T12:45:39;4.87;;;3.30;;
10281;SDS011;5186;59.472;18.048;2023-02-22T12:56:52;5.57;;;3.80;;
10281;SDS011;5186;59.472;18.048;2023-02-22T13:02:03;4.63;;;3.37;;
10281;SDS011;5186;59.472;18.048;2023-02-22T13:04:53;5.80;;;3.57;;
10281;SDS011;5186;59.472;18.048;2023-02-22T13:07:40;4.80;;;3.43;;
10281;SDS011;5186;59.472;18.048;2023-02-22T13:18:46;6.87;;;4.53;;
10281;SDS011;5186;59.472;18.048;2023-02-22T13:22:08;7.00;;;4.33;;
10281;SDS011;5186;59.472;18.048;2023-02-22T13:26:57;6.43;;;4.70;;
10281;SDS011;5186;59.472;18.048;2023-02-22T13:29:30;7.47;;;4.63;;
10281;SDS011;5186;59.472;18.048;2023-02-22T13:32:08;8.30;;;4.77;;
10281;SDS011;5186;59.472;18.048;2023-02-22T13:35:04;8.87;;;4.93;;
10281;SDS011;5186;59.472;18.048;2023-02-22T13:42:56;6.67;;;4.87;;
10281;SDS011;5186;59.472;18.048;2023-02-22T13:48:51;6.30;;;4.20;;
10281;SDS011;5186;59.472;18.048;2023-02-22T13:56:40;7.13;;;5.27;;
10281;SDS011;5186;59.472;18.048;2023-02-22T13:59:19;6.53;;;4.57;;
10281;SDS011;5186;59.472;18.048;2023-02-22T14:01:48;7.70;;;5.03;;
10281;SDS011;5186;59.472;18.048;2023-02-22T14:06:51;8.10;;;4.87;;
10281;SDS011;5186;59.472;18.048;2023-02-22T14:17:39;7.27;;;4.83;;
10281;SDS011;5186;59.472;18.048;2023-02-22T14:22:44;7.13;;;4.97;;
10281;SDS011;5186;59.472;18.048;2023-02-22T14:25:31;6.63;;;4.47;;
10281;SDS011;5186;59.472;18.048;2023-02-22T14:28:06;6.23;;;4.63;;
10281;SDS011;5186;59.472;18.048;2023-02-22T14:31:02;7.30;;;4.90;;
10281;SDS011;5186;59.472;18.048;2023-02-22T14:33:49;7.97;;;5.07;;
10281;SDS011;5186;59.472;18.048;2023-02-22T14:36:28;5.83;;;4.13;;
10281;SDS011;5186;59.472;18.048;2023-02-22T14:39:15;7.57;;;4.80;;
10281;SDS011;5186;59.472;18.048;2023-02-22T14:41:45;5.40;;;3.97;;
10281;SDS011;5186;59.472;18.048;2023-02-22T14:44:19;5.07;;;3.67;;
10281;SDS011;5186;59.472;18.048;2023-02-22T14:46:49;7.67;;;4.50;;
10281;SDS011;5186;59.472;18.048;2023-02-22T14:49:20;6.83;;;4.47;;
10281;SDS011;5186;59.472;18.048;2023-02-22T14:51:58;6.83;;;4.30;;
10281;SDS011;5186;59.472;18.048;2023-02-22T14:54:34;5.40;;;4.00;;
10281;SDS011;5186;59.472;18.048;2023-02-22T14:57:11;7.50;;;4.90;;
10281;SDS011;5186;59.472;18.048;2023-02-22T15:02:23;6.13;;;4.20;;
10281;SDS011;5186;59.472;18.048;2023-02-22T15:04:53;7.53;;;4.73;;
10281;SDS011;5186;59.472;18.048;2023-02-22T15:07:28;6.80;;;4.63;;
10281;SDS011;5186;59.472;18.048;2023-02-22T15:12:55;7.10;;;4.90;;
10281;SDS011;5186;59.472;18.048;2023-02-22T15:15:36;7.37;;;4.77;;
10281;SDS011;5186;59.472;18.048;2023-02-22T15:18:16;9.57;;;5.20;;
10281;SDS011;5186;59.472;18.048;2023-02-22T15:20:49;6.53;;;4.60;;
10281;SDS011;5186;59.472;18.048;2023-02-22T15:23:21;9.03;;;5.03;;
10281;SDS011;5186;59.472;18.048;2023-02-22T15:25:54;6.73;;;4.47;;
10281;SDS011;5186;59.472;18.048;2023-02-22T15:28:20;8.43;;;5.10;;
10281;SDS011;5186;59.472;18.048;2023-02-22T15:30:47;7.30;;;4.83;;
10281;SDS011;5186;59.472;18.048;2023-02-22T15:33:17;6.60;;;4.70;;
10281;SDS011;5186;59.472;18.048;2023-02-22T15:35:55;8.83;;;4.83;;
10281;SDS011;5186;59.472;18.048;2023-02-22T15:38:26;7.13;;;4.80;;
10281;SDS011;5186;59.472;18.048;2023-02-22T15:40:58;7.67;;;4.90;;
10281;SDS011;5186;59.472;18.048;2023-02-22T15:43:26;6.47;;;4.87;;
10281;SDS011;5186;59.472;18.048;2023-02-22T15:45:56;7.20;;;4.90;;
10281;SDS011;5186;59.472;18.048;2023-02-22T15:48:23;7.87;;;4.83;;
10281;SDS011;5186;59.472;18.048;2023-02-22T15:51:00;7.37;;;5.00;;
10281;SDS011;5186;59.472;18.048;2023-02-22T15:53:42;7.23;;;4.47;;
10281;SDS011;5186;59.472;18.048;2023-02-22T15:56:11;7.30;;;5.07;;
10281;SDS011;5186;59.472;18.048;2023-02-22T15:58:43;7.20;;;4.60;;
10281;SDS011;5186;59.472;18.048;2023-02-22T16:01:15;7.13;;;4.73;;
10281;SDS011;5186;59.472;18.048;2023-02-22T16:03:49;5.80;;;4.37;;
10281;SDS011;5186;59.472;18.048;2023-02-22T16:06:31;7.03;;;4.90;;
10281;SDS011;5186;59.472;18.048;2023-02-22T16:09:08;7.40;;;4.83;;
10281;SDS011;5186;59.472;18.048;2023-02-22T16:11:44;6.33;;;4.70;;
10281;SDS011;5186;59.472;18.048;2023-02-22T16:17:10;8.33;;;4.93;;
10281;SDS011;5186;59.472;18.048;2023-02-22T16:19:48;8.10;;;4.70;;
10281;SDS011;5186;59.472;18.048;2023-02-22T16:22:29;7.40;;;5.07;;
10281;SDS011;5186;59.472;18.048;2023-02-22T16:25:14;6.23;;;4.80;;
10281;SDS011;5186;59.472;18.048;2023-02-22T16:27:53;7.27;;;5.27;;
10281;SDS011;5186;59.472;18.048;2023-02-22T16:32:51;8.90;;;5.83;;
10281;SDS011;5186;59.472;18.048;2023-02-22T16:35:19;8.87;;;5.70;;
10281;SDS011;5186;59.472;18.048;2023-02-22T16:38:18;12.77;;;6.33;;
10281;SDS011;5186;59.472;18.048;2023-02-22T16:40:41;11.30;;;6.40;;
10281;SDS011;5186;59.472;18.048;2023-02-22T16:43:17;8.10;;;4.93;;
10281;SDS011;5186;59.472;18.048;2023-02-22T16:45:45;6.07;;;3.57;;
10281;SDS011;5186;59.472;18.048;2023-02-22T16:48:16;5.43;;;3.37;;
10281;SDS011;5186;59.472;18.048;2023-02-22T16:50:44;5.60;;;3.50;;
10281;SDS011;5186;59.472;18.048;2023-02-22T16:53:11;8.10;;;4.50;;
10281;SDS011;5186;59.472;18.048;2023-02-22T16:55:37;4.83;;;3.63;;
10281;SDS011;5186;59.472;18.048;2023-02-22T16:58:06;6.80;;;3.87;;
10281;SDS011;5186;59.472;18.048;2023-02-22T17:00:32;6.17;;;3.83;;
10281;SDS011;5186;59.472;18.048;2023-02-22T17:02:59;7.40;;;3.40;;
10281;SDS011;5186;59.472;18.048;2023-02-22T17:05:27;5.60;;;3.93;;
10281;SDS011;5186;59.472;18.048;2023-02-22T17:08:00;5.17;;;3.67;;
10281;SDS011;5186;59.472;18.048;2023-02-22T17:10:26;5.70;;;3.23;;
10281;SDS011;5186;59.472;18.048;2023-02-22T17:12:53;5.87;;;3.53;;
10281;SDS011;5186;59.472;18.048;2023-02-22T17:15:26;5.57;;;3.20;;
10281;SDS011;5186;59.472;18.048;2023-02-22T17:17:54;4.43;;;3.03;;
10281;SDS011;5186;59.472;18.048;2023-02-22T17:20:20;4.77;;;2.97;;
10281;SDS011;5186;59.472;18.048;2023-02-22T17:23:05;4.47;;;2.90;;
10281;SDS011;5186;59.472;18.048;2023-02-22T17:28:00;5.37;;;3.50;;
10281;SDS011;5186;59.472;18.048;2023-02-22T17:30:26;5.90;;;3.30;;
10281;SDS011;5186;59.472;18.048;2023-02-22T17:32:52;5.53;;;3.40;;
10281;SDS011;5186;59.472;18.048;2023-02-22T17:35:20;4.43;;;3.33;;
10281;SDS011;5186;59.472;18.048;2023-02-22T17:37:50;4.87;;;3.27;;
10281;SDS011;5186;59.472;18.048;2023-02-22T17:40:16;7.67;;;3.80;;
10281;SDS011;5186;59.472;18.048;2023-02-22T17:42:42;6.63;;;3.70;;
10281;SDS011;5186;59.472;18.048;2023-02-22T17:45:09;6.87;;;3.67;;
10281;SDS011;5186;59.472;18.048;2023-02-22T17:47:38;26.37;;;10.27;;